Time;durP1;ratioP1;P1;durP2;ratioP2;P2;SDS_P1;SDS_P2;PMS_P1;PMS_P2;Temp;Humidity;BMP_temperature;BMP_pressure;BME280_temperature;BME280_humidity;BME280_pressure;Samples;Min_cycle;Max_cycle;Signal;HPM_P1;HPM_P2
2022/04/08 00:01:54;;;;;;;4.85;1.60;;;10.20;85.60;;;10.13;58.13;99002.69;5012807;28;20060;-79
2022/04/08 00:04:21;;;;;;;5.75;1.95;;;10.20;86.00;;;10.18;55.92;99026.16;5012114;28;20042;-78
2022/04/08 00:06:48;;;;;;;3.55;1.70;;;10.90;84.30;;;10.14;56.24;99008.78;5016002;28;20133;-79
2022/04/08 00:09:15;;;;;;;10.23;1.95;;;10.20;84.30;;;10.15;55.38;99008.75;5017976;28;20048;-78
2022/04/08 00:11:42;;;;;;;4.10;1.83;;;11.40;84.40;;;10.14;58.09;99009.66;5020307;28;20068;-78
2022/04/08 00:14:09;;;;;;;6.28;1.98;;;8.80;85.60;;;10.11;57.66;99029.97;5017783;28;20095;-79
2022/04/08 00:16:38;;;;;;;5.85;1.65;;;10.10;85.40;;;10.21;55.18;99026.84;5032860;28;20406;-80
2022/04/08 00:19:05;;;;;;;5.30;1.80;;;10.20;83.20;;;10.19;54.76;99028.69;5016821;28;20137;-78
2022/04/08 00:21:33;;;;;;;4.47;1.55;;;10.20;82.30;;;10.20;54.29;99035.66;5007219;28;20056;-79
2022/04/08 00:24:00;;;;;;;5.35;1.75;;;10.30;81.50;;;10.12;55.04;99027.28;5012378;28;20051;-78
2022/04/08 00:26:27;;;;;;;9.00;2.72;;;10.20;82.50;;;10.08;55.42;99031.81;5016842;28;20042;-78
2022/04/08 00:28:54;;;;;;;6.28;1.92;;;11.60;83.90;;;10.06;55.94;99041.53;5003394;28;20045;-79
2022/04/08 00:31:22;;;;;;;3.20;1.58;;;11.90;84.30;;;10.06;55.50;99046.78;5016066;28;20048;-78
2022/04/08 00:33:49;;;;;;;5.07;1.67;;;11.50;83.60;;;10.11;54.81;99059.75;5008966;28;20034;-79
2022/04/08 00:36:16;;;;;;;9.50;2.80;;;10.20;82.10;;;10.05;55.61;99052.97;4992471;28;20038;-77
2022/04/08 00:38:44;;;;;;;6.65;1.85;;;10.20;82.90;;;10.06;57.15;99059.06;5010259;28;20480;-79
2022/04/08 00:41:12;;;;;;;6.82;1.92;;;10.10;84.40;;;10.03;56.84;99053.94;4976607;28;20046;-78
2022/04/08 00:43:39;;;;;;;7.53;2.05;;;10.10;84.20;;;9.99;57.43;99057.63;5009382;28;20061;-79
2022/04/08 00:46:11;;;;;;;4.90;1.60;;;10.10;84.70;;;10.06;58.35;99054.69;5010457;28;20046;-79
2022/04/08 00:48:38;;;;;;;9.30;2.85;;;11.30;86.40;;;10.02;58.35;99058.38;5010661;28;20054;-79
2022/04/08 00:51:07;;;;;;;8.38;2.33;;;10.40;86.30;;;9.97;59.45;99064.72;4991153;28;20526;-79
2022/04/08 00:53:38;;;;;;;10.00;1.98;;;11.70;87.80;;;9.95;60.86;99061.31;4993655;28;20518;-78
2022/04/08 00:56:06;;;;;;;8.05;2.08;;;10.00;87.60;;;10.01;60.23;99072.44;5009309;28;20385;-77
2022/04/08 00:58:36;;;;;;;5.82;1.77;;;10.00;87.50;;;10.03;60.96;99059.19;5006677;28;20118;-77
2022/04/08 01:01:03;;;;;;;4.85;2.08;;;11.70;88.70;;;10.02;62.24;99062.75;4990428;28;20182;-77
2022/04/08 01:03:30;;;;;;;6.07;1.83;;;10.00;89.10;;;9.96;64.63;99061.22;4995063;28;20495;-79
2022/04/08 01:05:57;;;;;;;6.03;1.75;;;11.40;90.50;;;9.99;66.68;99057.63;4994703;28;20065;-78
2022/04/08 01:08:25;;;;;;;6.07;1.83;;;9.90;90.60;;;9.97;68.05;99064.72;5011681;28;20046;-78
2022/04/08 01:10:54;;;;;;;4.63;1.67;;;10.10;90.90;;;9.93;70.91;99061.38;5021126;28;20058;-78
2022/04/08 01:13:22;;;;;;;9.48;2.28;;;10.70;91.60;;;9.88;73.20;99068.59;4991298;28;20129;-76
2022/04/08 01:15:49;;;;;;;7.90;1.83;;;9.90;91.70;;;9.86;73.20;99075.69;4992429;28;20625;-78
2022/04/08 01:18:16;;;;;;;6.35;1.75;;;9.50;91.70;;;9.86;75.37;99084.41;5010469;28;20057;-78
2022/04/08 01:20:43;;;;;;;5.95;1.80;;;9.80;92.10;;;9.84;76.83;99088.88;5013319;28;20670;-79
2022/04/08 01:23:11;;;;;;;4.95;1.90;;;10.70;92.60;;;9.83;72.93;99075.81;5010310;28;20046;-78
2022/04/08 01:25:38;;;;;;;8.88;2.03;;;10.40;91.80;;;9.82;74.65;99087.22;4994555;28;20056;-79
2022/04/08 01:28:05;;;;;;;5.68;1.88;;;9.80;92.00;;;9.75;72.60;99089.25;4991813;28;20042;-78
2022/04/08 01:30:32;;;;;;;3.47;1.35;;;9.80;91.60;;;9.81;69.55;99102.16;4991479;28;20053;-78
2022/04/08 01:32:59;;;;;;;4.50;1.50;;;11.30;91.30;;;9.77;69.55;99098.78;4984854;28;20049;-78
2022/04/08 01:35:27;;;;;;;4.40;1.70;;;11.60;91.60;;;9.64;70.72;99093.19;4993992;28;20061;-79
2022/04/08 01:37:54;;;;;;;8.60;1.85;;;9.80;91.20;;;9.71;68.98;99100.81;5015590;28;20054;-78
2022/04/08 01:40:21;;;;;;;8.50;2.20;;;9.80;90.80;;;9.68;68.49;99109.69;5031775;28;20050;-78
2022/04/08 01:42:48;;;;;;;9.57;1.63;;;11.20;91.20;;;9.65;68.76;99120.28;5013237;28;20084;-77
2022/04/08 01:45:15;;;;;;;19.33;3.80;;;10.80;91.10;;;9.68;69.39;99111.44;4983150;28;20118;-78
2022/04/08 01:47:42;;;;;;;6.25;1.83;;;9.70;91.00;;;9.62;70.22;99125.66;4995941;28;20046;-78
2022/04/08 01:50:09;;;;;;;5.68;1.52;;;10.60;91.40;;;9.55;71.68;99117.19;5008889;28;20046;-78
2022/04/08 01:52:37;;;;;;;5.03;2.00;;;9.70;91.40;;;9.59;71.68;99117.94;5008949;28;20046;-79
2022/04/08 01:55:05;;;;;;;8.57;1.60;;;9.70;91.40;;;9.53;72.52;99129.53;4994238;28;20065;-78
2022/04/08 01:57:33;;;;;;;6.72;1.75;;;9.60;91.60;;;9.51;74.83;99129.56;4978041;28;20064;-78
2022/04/08 02:00:02;;;;;;;9.30;2.38;;;9.60;92.00;;;9.47;73.90;99135.88;5010249;28;20057;-76
2022/04/08 02:02:39;;;;;;;6.35;2.03;;;9.60;91.80;;;9.49;73.45;99130.56;5010884;28;20125;-79
2022/04/08 02:05:07;;;;;;;7.57;1.77;;;9.60;91.70;;;9.53;73.62;99134.78;5014173;28;20045;-79
2022/04/08 02:07:34;;;;;;;8.20;1.80;;;9.50;91.80;;;9.51;75.50;99128.72;5014989;28;20077;-79
2022/04/08 02:10:01;;;;;;;6.38;2.15;;;9.60;92.20;;;9.50;78.67;99129.66;4997616;28;20430;-78
2022/04/08 02:12:28;;;;;;;9.18;2.30;;;9.70;93.00;;;9.44;78.22;99130.75;5013110;28;20126;-78
2022/04/08 02:14:55;;;;;;;4.35;1.65;;;9.90;92.70;;;9.46;78.11;99128.91;4986501;28;20042;-77
2022/04/08 02:17:25;;;;;;;5.55;1.48;;;9.50;92.50;;;9.46;80.16;99128.06;4995595;28;20065;-78
2022/04/08 02:19:53;;;;;;;6.55;1.85;;;9.50;92.80;;;9.41;80.40;99125.63;5011822;28;20088;-78
2022/04/08 02:22:20;;;;;;;8.60;1.77;;;9.40;92.80;;;9.34;83.89;99124.13;5019139;28;20065;-78
2022/04/08 02:24:49;;;;;;;6.43;1.63;;;11.10;93.70;;;9.44;83.48;99141.25;5014876;28;20125;-78
2022/04/08 02:27:22;;;;;;;6.07;1.70;;;9.50;93.20;;;9.44;85.79;99143.88;5013790;28;20088;-79
2022/04/08 02:29:50;;;;;;;10.10;2.47;;;9.50;93.50;;;9.40;86.69;99144.91;4997786;28;20073;-78
2022/04/08 02:32:17;;;;;;;9.13;3.20;;;9.40;93.50;;;9.35;86.85;99145.09;5014294;28;20217;-78
2022/04/08 02:34:45;;;;;;;4.70;1.83;;;9.40;93.50;;;9.37;87.87;99155.53;4997761;28;20053;-78
2022/04/08 02:37:12;;;;;;;4.88;1.70;;;9.40;93.70;;;9.34;88.90;99153.88;5013403;28;20128;-80
2022/04/08 02:39:39;;;;;;;4.47;1.80;;;9.40;93.80;;;9.28;87.95;99163.75;5013159;28;20056;-80
2022/04/08 02:42:06;;;;;;;5.82;2.10;;;9.40;93.60;;;9.33;87.27;99156.53;5012406;28;20426;-78
2022/04/08 02:44:33;;;;;;;5.35;1.67;;;9.40;93.60;;;9.30;85.97;99159.28;5032843;28;20046;-78
2022/04/08 02:47:00;;;;;;;5.68;2.45;;;9.30;93.50;;;9.24;87.08;99165.63;5018300;28;20042;-78
2022/04/08 02:49:28;;;;;;;6.05;3.15;;;10.50;93.90;;;9.21;87.55;99171.00;5012772;28;20037;-80
2022/04/08 02:51:55;;;;;;;9.05;4.13;;;9.70;93.80;;;9.26;87.81;99162.97;5010943;28;20034;-78
2022/04/08 02:54:22;;;;;;;10.55;2.47;;;9.40;93.80;;;9.17;87.81;99170.25;5021025;28;20038;-79
2022/04/08 02:56:49;;;;;;;7.80;1.88;;;9.30;93.70;;;9.15;88.09;99173.88;5016834;28;20049;-78
2022/04/08 02:59:16;;;;;;;9.43;2.10;;;9.30;93.60;;;9.17;87.60;99164.16;5005201;28;20050;-80
2022/04/08 03:01:43;;;;;;;9.65;2.00;;;10.90;94.00;;;9.03;89.74;99173.41;5019160;28;20094;-80
2022/04/08 03:04:10;;;;;;;5.80;1.98;;;9.30;93.70;;;9.06;90.12;99183.78;5021047;28;20046;-80
2022/04/08 03:06:37;;;;;;;5.47;2.08;;;9.20;93.80;;;9.11;91.38;99180.13;5032210;28;20046;-78
2022/04/08 03:09:05;;;;;;;8.15;1.73;;;9.20;94.00;;;9.12;91.51;99176.59;5019913;28;20049;-78
2022/04/08 03:11:33;;;;;;;9.18;2.03;;;9.20;94.20;;;9.05;92.28;99187.31;5015069;28;20058;-78
2022/04/08 03:14:02;;;;;;;5.93;2.03;;;9.20;94.10;;;9.10;91.15;99181.91;5019417;28;20042;-79
2022/04/08 03:16:29;;;;;;;3.67;1.52;;;9.20;94.00;;;9.07;93.11;99177.63;5016846;28;20388;-79
2022/04/08 03:18:57;;;;;;;6.47;1.80;;;10.80;94.70;;;9.07;93.94;99193.34;5020060;28;20054;-79
2022/04/08 03:21:25;;;;;;;7.63;2.13;;;9.20;94.30;;;9.04;94.65;99188.22;5018072;28;20058;-78
2022/04/08 03:23:52;;;;;;;8.77;1.83;;;9.50;94.50;;;9.07;96.15;99193.34;5017677;28;20080;-79
2022/04/08 03:26:19;;;;;;;8.07;2.17;;;9.10;94.50;;;9.00;97.27;99194.50;5018159;28;20596;-77
2022/04/08 03:28:46;;;;;;;14.30;2.33;;;9.20;94.70;;;9.11;98.12;99201.13;5015508;28;20054;-78
2022/04/08 03:31:13;;;;;;;6.90;1.90;;;11.50;95.40;;;9.00;99.57;99201.50;5014240;28;20036;-80
2022/04/08 03:33:41;;;;;;;8.77;2.15;;;10.70;95.40;;;9.09;99.75;99206.44;4997037;28;20673;-80
2022/04/08 03:36:08;;;;;;;5.72;1.70;;;9.10;95.10;;;9.03;100.00;99206.63;4998078;28;20068;-80
2022/04/08 03:38:35;;;;;;;8.00;2.00;;;11.10;95.70;;;8.97;100.00;99202.47;5012757;28;20056;-81
2022/04/08 03:41:02;;;;;;;11.05;2.33;;;9.50;95.30;;;9.00;100.00;99206.75;5014138;28;20108;-78
2022/04/08 03:43:30;;;;;;;6.85;1.88;;;9.10;95.20;;;9.02;100.00;99210.19;5012662;28;20038;-80
2022/04/08 03:45:57;;;;;;;7.88;2.00;;;11.40;95.80;;;9.01;100.00;99211.97;4997126;28;20046;-80
2022/04/08 03:48:24;;;;;;;6.57;1.83;;;9.20;95.20;;;9.00;100.00;99207.63;5011149;28;20543;-78
2022/04/08 03:50:51;;;;;;;7.20;1.90;;;10.00;95.50;;;9.01;100.00;99211.09;4995929;28;20194;-78
2022/04/08 03:53:18;;;;;;;8.98;2.78;;;9.20;95.40;;;9.07;100.00;99222.22;5026843;28;20065;-77
2022/04/08 03:55:47;;;;;;;7.07;1.75;;;10.70;95.90;;;9.02;100.00;99205.81;5010567;28;20104;-78
2022/04/08 03:58:14;;;;;;;6.30;3.13;;;9.10;95.50;;;8.93;100.00;99214.84;5012644;28;20058;-78
2022/04/08 04:00:42;;;;;;;7.97;2.13;;;7.60;95.20;;;8.95;100.00;99212.16;5013719;28;20495;-79
2022/04/08 04:03:09;;;;;;;9.32;2.22;;;9.10;95.60;;;8.96;100.00;99215.66;4996578;28;20046;-79
2022/04/08 04:05:43;;;;;;;7.93;2.10;;;9.60;95.70;;;8.99;100.00;99218.16;5013314;28;20050;-79
2022/04/08 04:08:15;;;;;;;7.93;3.70;;;9.00;95.60;;;8.97;100.00;99210.34;5013328;28;20030;-78
2022/04/08 04:10:42;;;;;;;10.95;2.70;;;9.60;95.90;;;8.93;100.00;99214.84;5011391;28;20558;-77
2022/04/08 04:13:09;;;;;;;5.05;2.03;;;9.30;95.80;;;8.87;100.00;99215.06;5007300;28;20041;-78
2022/04/08 04:15:36;;;;;;;8.55;2.58;;;8.90;95.90;;;8.85;100.00;99210.81;5012206;28;20038;-78
2022/04/08 04:18:04;;;;;;;8.93;2.97;;;8.90;95.80;;;8.85;100.00;99206.41;5012299;28;20056;-77
2022/04/08 04:20:31;;;;;;;7.78;2.67;;;9.00;95.90;;;8.80;100.00;99206.56;5008928;28;20057;-79
2022/04/08 04:22:58;;;;;;;8.75;2.75;;;8.90;95.90;;;8.78;100.00;99213.63;5014330;28;20093;-78
2022/04/08 04:25:26;;;;;;;8.00;2.63;;;8.90;95.90;;;8.75;100.00;99207.66;4993054;28;20042;-79
2022/04/08 04:27:53;;;;;;;8.48;2.17;;;9.50;96.20;;;8.73;100.00;99214.69;5017359;28;20038;-77
2022/04/08 04:30:20;;;;;;;11.35;2.80;;;8.80;96.10;;;8.74;100.00;99209.41;5010908;28;20042;-77
2022/04/08 04:32:47;;;;;;;8.13;2.53;;;10.00;96.50;;;8.78;100.00;99223.28;4993652;28;20057;-76
2022/04/08 04:35:14;;;;;;;7.95;2.45;;;8.80;96.20;;;8.73;100.00;99217.31;5010425;28;20069;-77
2022/04/08 04:37:43;;;;;;;9.95;2.70;;;8.80;96.30;;;8.73;100.00;99214.69;5010932;28;20052;-76
2022/04/08 04:40:11;;;;;;;5.45;2.10;;;8.80;96.20;;;8.78;100.00;99220.66;5005951;28;20076;-77
2022/04/08 04:42:38;;;;;;;12.23;3.28;;;8.80;96.10;;;8.67;100.00;99210.53;5008048;28;20046;-76
2022/04/08 04:45:06;;;;;;;8.48;2.58;;;8.80;96.10;;;8.73;100.00;99214.69;5048793;28;20038;-75
2022/04/08 04:47:33;;;;;;;8.45;2.30;;;8.90;96.20;;;8.68;100.00;99214.88;5034027;28;20073;-78
2022/04/08 04:50:00;;;;;;;7.78;3.33;;;9.40;96.30;;;8.69;100.00;99213.97;4995566;28;20049;-78
2022/04/08 04:52:27;;;;;;;7.68;2.58;;;8.90;96.30;;;8.68;100.00;99208.75;5012604;28;20045;-78
2022/04/08 04:54:56;;;;;;;12.02;3.13;;;8.80;96.30;;;8.71;100.00;99208.66;5011416;28;20041;-78
2022/04/08 04:57:23;;;;;;;10.60;3.20;;;8.80;96.40;;;8.74;100.00;99205.91;4995055;28;20058;-79
2022/04/08 04:59:50;;;;;;;15.25;4.40;;;8.90;96.50;;;8.65;100.00;99210.59;5027042;28;20045;-79
2022/04/08 05:02:17;;;;;;;11.55;3.85;;;8.80;96.40;;;8.65;100.00;99212.34;5010011;28;20042;-79
2022/04/08 05:04:44;;;;;;;10.23;3.00;;;10.20;96.70;;;8.68;100.00;99199.13;5005868;28;20517;-77
2022/04/08 05:07:11;;;;;;;8.82;3.55;;;9.70;96.60;;;8.69;100.00;99198.22;5004506;28;20043;-77
2022/04/08 05:09:42;;;;;;;6.18;3.92;;;8.80;96.50;;;8.80;100.00;99203.09;5004881;28;20049;-77
2022/04/08 05:12:09;;;;;;;11.10;3.55;;;9.30;96.70;;;8.78;100.00;99210.16;5004650;28;20133;-77
2022/04/08 05:14:37;;;;;;;16.05;4.60;;;8.70;96.60;;;8.71;100.00;99213.88;5003899;28;20038;-79
2022/04/08 05:17:04;;;;;;;11.45;4.57;;;8.80;96.60;;;8.72;100.00;99219.09;4990831;28;20052;-77
2022/04/08 05:19:31;;;;;;;10.15;3.75;;;8.80;96.50;;;8.79;100.00;99217.13;5006686;28;20057;-78
2022/04/08 05:21:58;;;;;;;9.35;3.10;;;8.70;96.60;;;8.80;100.00;99218.81;5011818;28;20056;-77
2022/04/08 05:24:25;;;;;;;9.60;2.92;;;8.80;96.70;;;8.76;100.00;99204.94;5008718;28;20053;-79
2022/04/08 05:26:52;;;;;;;11.73;2.50;;;8.80;96.70;;;8.77;100.00;99219.78;4991702;28;20052;-78
2022/04/08 05:29:20;;;;;;;9.43;2.95;;;8.80;96.80;;;8.75;100.00;99210.28;5009527;28;20048;-78
2022/04/08 05:31:47;;;;;;;10.38;3.00;;;8.80;96.70;;;8.78;100.00;99205.75;5009672;28;20725;-78
2022/04/08 05:34:16;;;;;;;9.38;2.22;;;8.80;96.80;;;8.82;100.00;99213.50;5009328;28;20123;-79
2022/04/08 05:36:43;;;;;;;6.53;2.22;;;8.80;96.80;;;8.87;100.00;99215.06;5008719;28;20050;-79
2022/04/08 05:39:10;;;;;;;7.40;2.47;;;8.80;97.00;;;8.84;100.00;99209.94;5010410;28;20101;-78
2022/04/08 05:41:38;;;;;;;5.47;2.22;;;8.80;96.80;;;8.87;100.00;99222.09;4992098;28;20111;-78
2022/04/08 05:44:06;;;;;;;9.70;2.58;;;9.00;96.90;;;8.89;100.00;99212.41;5009310;28;20034;-77
2022/04/08 05:46:33;;;;;;;7.95;2.17;;;8.90;96.80;;;8.89;100.00;99200.13;5009319;28;20050;-77
2022/04/08 05:49:04;;;;;;;10.18;2.72;;;8.80;97.00;;;8.95;100.00;99201.66;5009223;28;20049;-77
2022/04/08 05:51:31;;;;;;;8.55;2.58;;;9.40;97.20;;;8.97;100.00;99194.59;5010626;28;20483;-77
2022/04/08 05:54:07;;;;;;;6.43;1.95;;;9.00;97.00;;;8.97;100.00;99205.09;5009401;28;20656;-77
2022/04/08 05:56:34;;;;;;;10.50;2.65;;;10.30;97.40;;;8.96;100.00;99197.28;5008645;28;20050;-79
2022/04/08 05:59:04;;;;;;;12.60;3.20;;;9.00;97.10;;;9.00;100.00;99206.75;5007912;28;20092;-78
2022/04/08 06:01:31;;;;;;;7.53;2.38;;;9.60;97.20;;;9.03;100.00;99206.63;5008501;28;20524;-76
2022/04/08 06:03:58;;;;;;;8.65;2.42;;;9.20;97.20;;;9.10;100.00;99199.41;5009430;28;20116;-79
2022/04/08 06:06:25;;;;;;;7.75;2.78;;;9.10;97.10;;;9.11;100.00;99203.75;5009243;28;20065;-78
2022/04/08 06:08:56;;;;;;;8.75;3.05;;;9.10;97.10;;;9.19;100.00;99194.66;5011754;28;20065;-77
2022/04/08 06:11:23;;;;;;;6.85;2.20;;;9.10;97.20;;;9.20;100.00;99185.03;4994410;28;20049;-77
2022/04/08 06:13:50;;;;;;;8.15;2.40;;;9.10;97.10;;;9.19;100.00;99185.94;5010114;28;20038;-78
2022/04/08 06:16:19;;;;;;;7.93;2.55;;;9.20;97.10;;;9.21;100.00;99190.25;5010161;28;20734;-78
2022/04/08 06:18:46;;;;;;;8.55;2.50;;;9.20;97.30;;;9.20;100.00;99190.28;5012423;28;20049;-78
2022/04/08 06:21:13;;;;;;;6.88;2.63;;;9.10;97.20;;;9.18;100.00;99176.38;5017612;28;20392;-78
2022/04/08 06:23:40;;;;;;;10.60;2.45;;;9.20;97.30;;;9.21;100.00;99184.13;5013799;28;20042;-77
2022/04/08 06:26:07;;;;;;;14.35;3.58;;;9.20;97.30;;;9.21;100.00;99182.38;5000717;28;20140;-77
2022/04/08 06:28:34;;;;;;;7.43;2.85;;;9.50;97.30;;;9.26;100.00;99171.69;5000320;28;20644;-78
2022/04/08 06:31:01;;;;;;;23.80;9.30;;;9.30;97.30;;;9.25;100.00;99179.63;4998817;28;20128;-78
2022/04/08 06:33:28;;;;;;;24.27;11.32;;;9.30;97.10;;;9.30;100.00;99175.91;5020977;28;20092;-76
2022/04/08 06:35:55;;;;;;;14.18;5.47;;;9.30;97.10;;;9.31;100.00;99172.38;5000188;28;20968;-76
2022/04/08 06:38:22;;;;;;;16.77;6.47;;;9.30;97.00;;;9.36;100.00;99167.78;5003469;28;20045;-78
2022/04/08 06:40:49;;;;;;;15.32;6.45;;;9.30;97.00;;;9.33;100.00;99161.78;5001188;28;20058;-77
2022/04/08 06:43:16;;;;;;;16.48;7.13;;;9.30;97.00;;;9.38;100.00;99165.13;5008802;28;20417;-77
2022/04/08 06:45:43;;;;;;;12.48;6.10;;;9.40;97.00;;;9.37;100.00;99160.78;4996466;28;20050;-78
2022/04/08 06:48:11;;;;;;;22.00;8.85;;;9.30;97.00;;;9.42;100.00;99158.84;4991015;28;20148;-77
2022/04/08 06:50:38;;;;;;;8.43;4.30;;;9.40;97.10;;;9.44;100.00;99156.13;4958270;28;20049;-77
2022/04/08 06:53:05;;;;;;;13.02;5.10;;;9.40;97.30;;;9.44;100.00;99146.50;4990820;28;20050;-77
2022/04/08 06:55:33;;;;;;;12.73;4.55;;;10.10;97.30;;;9.48;100.00;99150.72;5008818;28;20130;-77
2022/04/08 06:58:04;;;;;;;9.10;2.80;;;9.40;97.10;;;9.53;100.00;99142.66;5017767;28;20153;-77
2022/04/08 07:00:32;;;;;;;9.40;3.67;;;9.50;97.00;;;9.63;100.00;99138.75;5016354;28;20048;-78
2022/04/08 07:02:59;;;;;;;9.15;2.50;;;9.50;97.20;;;9.58;100.00;99126.72;5009749;28;20042;-76
2022/04/08 07:05:28;;;;;;;5.97;1.85;;;10.50;97.20;;;9.64;100.00;99140.47;5002983;28;20030;-76
2022/04/08 07:07:57;;;;;;;8.30;2.67;;;10.70;97.30;;;9.68;100.00;99128.06;4999869;28;20045;-76
2022/04/08 07:10:24;;;;;;;6.45;3.10;;;9.60;97.00;;;9.70;100.00;99130.63;5011513;28;20052;-76
2022/04/08 07:12:51;;;;;;;7.00;2.53;;;9.70;97.30;;;9.68;100.00;99122.81;5008162;28;20054;-76
2022/04/08 07:15:18;;;;;;;9.80;2.50;;;9.70;96.90;;;9.74;100.00;99121.69;5029640;28;20349;-75
2022/04/08 07:17:46;;;;;;;9.18;2.95;;;9.70;96.80;;;9.68;100.00;99111.44;5010172;28;20487;-76
2022/04/08 07:20:17;;;;;;;6.25;2.80;;;9.80;97.00;;;9.76;100.00;99104.13;4997413;28;20049;-78
2022/04/08 07:22:46;;;;;;;11.13;2.88;;;10.10;97.30;;;9.84;100.00;99104.66;5015927;28;20054;-78
2022/04/08 07:25:15;;;;;;;10.85;3.13;;;9.80;97.10;;;9.81;100.00;99102.16;4996579;28;20147;-78
2022/04/08 07:27:52;;;;;;;8.52;2.28;;;9.80;97.20;;;9.90;100.00;99091.25;5011674;28;20057;-80
2022/04/08 07:30:21;;;;;;;8.15;2.33;;;9.80;97.60;;;9.75;100.00;99094.50;5012307;28;20052;-79
2022/04/08 07:32:52;;;;;;;9.20;2.53;;;11.70;97.70;;;9.85;100.00;99087.13;5014511;28;20116;-79
2022/04/08 07:35:25;;;;;;;9.10;2.47;;;9.80;97.60;;;9.82;100.00;99089.84;4999604;28;20042;-79
2022/04/08 07:37:53;;;;;;;6.43;2.03;;;9.80;97.80;;;9.77;100.00;99085.66;4995733;28;20054;-79
2022/04/08 07:40:21;;;;;;;8.35;2.10;;;9.80;98.20;;;9.74;100.00;99098.91;4995884;28;20084;-79
2022/04/08 07:42:50;;;;;;;3.83;2.28;;;8.90;97.70;;;9.73;100.00;99083.22;4997476;28;20049;-79
2022/04/08 07:45:17;;;;;;;6.15;2.40;;;9.80;97.70;;;9.69;100.00;99079.00;5018099;28;20037;-78
2022/04/08 07:47:44;;;;;;;5.90;1.65;;;9.80;98.00;;;9.58;100.00;99084.72;5002658;28;20049;-76
2022/04/08 07:50:14;;;;;;;4.75;1.70;;;10.20;97.50;;;9.62;100.00;99076.66;5001165;28;20069;-79
2022/04/08 07:52:42;;;;;;;4.25;1.77;;;9.70;97.60;;;9.61;100.00;99063.56;5010997;28;20034;-80
2022/04/08 07:55:11;;;;;;;5.72;1.98;;;9.60;97.90;;;9.56;100.00;99066.38;4995187;28;20095;-77
2022/04/08 07:57:50;;;;;;;7.55;1.90;;;9.60;97.90;;;9.52;100.00;99067.44;5012151;28;20060;-78
2022/04/08 08:00:26;;;;;;;3.45;1.70;;;9.60;97.70;;;9.55;100.00;99072.53;4993530;28;20042;-78
2022/04/08 08:02:54;;;;;;;4.80;1.63;;;9.60;97.80;;;9.32;100.00;99078.72;5009899;28;20140;-79
2022/04/08 08:05:25;;;;;;;6.30;1.77;;;9.50;97.20;;;9.25;100.00;99069.38;4994744;28;20045;-78
2022/04/08 08:07:53;;;;;;;4.30;1.80;;;9.50;97.00;;;9.09;100.00;99072.63;4994391;28;20056;-78
2022/04/08 08:10:25;;;;;;;5.30;1.55;;;9.90;97.40;;;9.10;100.00;99069.06;4994778;28;20050;-77
2022/04/08 08:12:54;;;;;;;4.63;1.80;;;9.20;97.80;;;9.07;100.00;99067.41;5014935;28;20048;-77
2022/04/08 08:15:23;;;;;;;6.53;1.80;;;9.20;98.10;;;9.01;100.00;99067.66;4999284;28;20743;-79
2022/04/08 08:17:51;;;;;;;4.85;1.58;;;9.30;98.60;;;9.02;100.00;99060.63;5012015;28;20081;-78
2022/04/08 08:20:37;;;;;;;6.85;1.65;;;9.40;98.70;;;9.00;100.00;99062.47;4995588;28;20046;-79
2022/04/08 08:23:08;;;;;;;10.60;2.65;;;9.10;99.20;;;8.96;100.00;99063.50;5008995;28;20093;-78
2022/04/08 08:25:37;;;;;;;6.65;2.08;;;9.00;99.30;;;8.91;100.00;99055.78;4993774;28;20073;-78
2022/04/08 08:28:04;;;;;;;4.72;1.60;;;9.00;99.90;;;9.03;100.00;99065.81;4993389;28;20123;-79
2022/04/08 08:30:32;;;;;;;4.00;2.00;;;9.00;99.90;;;8.88;100.00;99058.53;5008732;28;20042;-79
2022/04/08 08:32:59;;;;;;;3.58;1.58;;;9.00;99.90;;;8.85;100.00;99050.81;5005002;28;20042;-78
2022/04/08 08:35:27;;;;;;;7.95;2.33;;;9.00;99.90;;;8.82;100.00;99056.13;4997614;28;20046;-78
2022/04/08 08:37:59;;;;;;;6.03;2.30;;;8.90;99.90;;;8.66;100.00;99051.47;5014062;28;20049;-78
2022/04/08 08:40:32;;;;;;;4.05;1.92;;;8.90;99.90;;;8.72;100.00;99050.38;4996642;28;20103;-77
2022/04/08 08:43:14;;;;;;;6.53;1.73;;;8.80;99.90;;;8.66;100.00;99048.84;5013415;28;20042;-78
2022/04/08 08:45:43;;;;;;;7.63;1.90;;;8.70;99.90;;;8.57;100.00;99044.81;4994557;28;20117;-78
2022/04/08 08:48:12;;;;;;;7.53;2.00;;;8.70;99.90;;;8.53;100.00;99040.59;5013299;28;20038;-79
2022/04/08 08:50:44;;;;;;;7.97;1.83;;;8.80;99.90;;;8.56;100.00;99032.59;5012891;28;20046;-78
2022/04/08 08:53:19;;;;;;;3.50;1.65;;;8.70;99.90;;;8.57;100.00;99049.22;5013595;28;20104;-79
2022/04/08 08:55:50;;;;;;;8.02;2.95;;;8.70;99.90;;;8.57;100.00;99044.81;4998650;28;20046;-78
2022/04/08 08:58:17;;;;;;;5.07;2.08;;;8.60;99.90;;;8.65;100.00;99048.00;5019125;28;20068;-79
2022/04/08 09:00:44;;;;;;;4.43;1.95;;;8.70;99.90;;;8.57;100.00;99039.56;5027230;28;20081;-78
2022/04/08 09:03:13;;;;;;;4.47;1.92;;;8.70;99.90;;;8.59;100.00;99035.13;5028192;28;20579;-78
2022/04/08 09:05:46;;;;;;;3.15;1.55;;;10.30;99.90;;;8.56;100.00;99042.25;5012626;28;20045;-79
2022/04/08 09:08:13;;;;;;;5.07;2.05;;;8.70;99.90;;;8.46;100.00;99026.81;5012149;28;20046;-78
2022/04/08 09:10:43;;;;;;;4.20;2.22;;;8.60;99.90;;;8.51;100.00;99043.28;5013162;28;20050;-78
2022/04/08 09:13:11;;;;;;;6.77;2.17;;;8.60;99.90;;;8.45;100.00;99045.25;5013933;28;20121;-79
2022/04/08 09:15:41;;;;;;;5.35;2.22;;;10.40;99.90;;;8.46;100.00;99042.53;5016268;28;21113;-80
2022/04/08 09:18:11;;;;;;;4.03;1.98;;;9.90;99.90;;;8.31;100.00;99027.38;5020533;28;20049;-80
2022/04/08 09:20:49;;;;;;;6.15;2.30;;;8.50;99.90;;;8.35;100.00;99024.59;5014105;28;20049;-79
2022/04/08 09:23:18;;;;;;;4.97;1.73;;;8.40;99.90;;;8.29;100.00;99018.72;4996276;28;20084;-80
2022/04/08 09:25:58;;;;;;;7.00;2.00;;;8.50;99.90;;;8.31;100.00;99022.13;5015631;28;20045;-77
2022/04/08 09:28:31;;;;;;;6.57;1.90;;;8.40;99.90;;;8.20;100.00;99018.16;5015463;28;20068;-80
2022/04/08 09:30:59;;;;;;;4.72;2.00;;;8.40;99.90;;;8.18;100.00;99019.94;5016269;28;20057;-78
2022/04/08 09:33:27;;;;;;;2.95;1.48;;;8.30;99.90;;;8.05;100.00;99009.06;5013624;28;20662;-79
2022/04/08 09:35:57;;;;;;;3.58;1.42;;;8.30;99.90;;;8.12;100.00;98999.22;5010870;28;20525;-79
2022/04/08 09:38:28;;;;;;;7.03;2.75;;;10.60;99.90;;;8.28;100.00;98994.31;5013742;28;20054;-78
2022/04/08 09:41:06;;;;;;;2.45;1.73;;;9.80;99.90;;;8.25;100.00;98983.06;4997400;28;20065;-79
2022/04/08 09:43:35;;;;;;;3.53;1.70;;;8.30;99.90;;;8.27;100.00;98986.47;5013745;28;20049;-79
2022/04/08 09:46:20;;;;;;;4.88;1.80;;;9.40;99.90;;;8.25;100.00;98976.03;4980677;28;20042;-78
2022/04/08 09:48:48;;;;;;;3.08;1.60;;;8.20;99.90;;;8.28;100.00;98965.47;4996745;28;20046;-79
2022/04/08 09:51:23;;;;;;;4.53;1.55;;;8.20;99.90;;;8.29;100.00;98951.47;5011296;28;20034;-78
2022/04/08 09:53:58;;;;;;;8.00;2.33;;;9.40;99.90;;;8.42;100.00;98958.84;4993521;28;20658;-77
2022/04/08 09:56:28;;;;;;;5.68;1.40;;;8.50;99.90;;;8.30;100.00;98947.94;4995817;28;20129;-78
2022/04/08 09:59:14;;;;;;;5.40;2.33;;;9.90;99.90;;;8.37;100.00;98944.16;4980481;28;20074;-79
2022/04/08 10:02:03;;;;;;;5.45;2.42;;;8.40;99.90;;;8.47;100.00;98928.09;4996338;28;20112;-78
2022/04/08 10:04:33;;;;;;;9.45;4.95;;;8.40;99.90;;;8.61;100.00;98927.56;4993732;28;20100;-77
2022/04/08 10:07:02;;;;;;;5.25;2.72;;;8.50;99.90;;;8.54;100.00;98920.88;4995326;28;20054;-78
2022/04/08 10:09:39;;;;;;;4.65;2.20;;;8.50;99.90;;;8.57;100.00;98912.88;4980993;28;20038;-78
2022/04/08 10:12:30;;;;;;;4.15;2.05;;;8.50;99.90;;;8.52;100.00;98905.19;4994688;28;20069;-78
2022/04/08 10:15:13;;;;;;;6.03;2.88;;;8.50;99.90;;;8.51;100.00;98899.09;4992267;28;20541;-78
2022/04/08 10:17:40;;;;;;;4.72;2.05;;;8.50;99.90;;;8.54;100.00;98889.41;4990754;28;20046;-78
2022/04/08 10:20:21;;;;;;;5.40;2.25;;;8.50;99.90;;;8.62;100.00;98880.31;4990750;28;20046;-78
2022/04/08 10:22:49;;;;;;;6.90;2.65;;;8.60;99.90;;;8.68;100.00;98873.13;4993786;28;20109;-78
2022/04/08 10:25:18;;;;;;;6.80;2.15;;;8.50;99.90;;;8.60;100.00;98862.94;4994350;28;20053;-78
2022/04/08 10:27:46;;;;;;;5.30;2.45;;;8.60;99.90;;;8.65;100.00;98871.47;4995923;28;20081;-79
2022/04/08 10:30:20;;;;;;;4.65;1.95;;;8.60;99.90;;;8.60;100.00;98868.19;5007103;28;20026;-77
2022/04/08 10:32:58;;;;;;;7.35;2.45;;;8.60;99.90;;;8.59;100.00;98872.59;5005348;28;20053;-79